sensor_id;sensor_type;location;lat;lon;timestamp;pressure;altitude;pressure_sealevel;temperature;humidity
60212;BME280;46079;48.686;15.598;2023-02-13T00:00:29;101975.81;;;20.16;36.11
60212;BME280;46079;48.686;15.598;2023-02-13T00:02:55;101971.41;;;20.16;36.20
60212;BME280;46079;48.686;15.598;2023-02-13T00:05:23;101974.88;;;20.17;36.19
60212;BME280;46079;48.686;15.598;2023-02-13T00:07:49;101967.00;;;20.17;36.26
60212;BME280;46079;48.686;15.598;2023-02-13T00:10:14;101967.00;;;20.17;36.34
60212;BME280;46079;48.686;15.598;2023-02-13T00:12:40;101969.69;;;20.15;36.15
60212;BME280;46079;48.686;15.598;2023-02-13T00:15:06;101965.31;;;20.16;36.08
60212;BME280;46079;48.686;15.598;2023-02-13T00:17:32;101963.53;;;20.16;36.24
60212;BME280;46079;48.686;15.598;2023-02-13T00:19:57;101966.22;;;20.15;36.30
60212;BME280;46079;48.686;15.598;2023-02-13T00:22:23;101967.06;;;20.15;36.27
60212;BME280;46079;48.686;15.598;2023-02-13T00:24:48;101962.69;;;20.16;36.39
60212;BME280;46079;48.686;15.598;2023-02-13T00:27:14;101974.09;;;20.15;36.28
60212;BME280;46079;48.686;15.598;2023-02-13T00:29:40;101968.84;;;20.15;36.60
60212;BME280;46079;48.686;15.598;2023-02-13T00:32:05;101967.06;;;20.15;36.49
60212;BME280;46079;48.686;15.598;2023-02-13T00:34:31;101972.31;;;20.15;36.30
60212;BME280;46079;48.686;15.598;2023-02-13T00:36:56;101974.94;;;20.15;36.49
60212;BME280;46079;48.686;15.598;2023-02-13T00:39:22;101966.22;;;20.15;36.36
60212;BME280;46079;48.686;15.598;2023-02-13T00:41:47;101971.47;;;20.15;36.46
60212;BME280;46079;48.686;15.598;2023-02-13T00:44:12;101970.56;;;20.16;36.49
60212;BME280;46079;48.686;15.598;2023-02-13T00:46:38;101974.09;;;20.15;36.38
60212;BME280;46079;48.686;15.598;2023-02-13T00:49:04;101982.00;;;20.15;36.30
60212;BME280;46079;48.686;15.598;2023-02-13T00:51:29;101988.09;;;20.15;36.60
60212;BME280;46079;48.686;15.598;2023-02-13T00:53:55;101982.84;;;20.15;36.38
60212;BME280;46079;48.686;15.598;2023-02-13T00:56:20;101990.63;;;20.17;36.61
60212;BME280;46079;48.686;15.598;2023-02-13T00:58:46;101997.69;;;20.16;36.61
60212;BME280;46079;48.686;15.598;2023-02-13T01:01:11;101994.22;;;20.16;36.60
60212;BME280;46079;48.686;15.598;2023-02-13T01:03:37;101993.34;;;20.15;36.60
60212;BME280;46079;48.686;15.598;2023-02-13T01:06:03;101987.25;;;20.15;36.55
60212;BME280;46079;48.686;15.598;2023-02-13T01:08:28;101987.25;;;20.15;36.49
60212;BME280;46079;48.686;15.598;2023-02-13T01:10:54;101988.09;;;20.15;36.38
60212;BME280;46079;48.686;15.598;2023-02-13T01:13:20;101987.25;;;20.15;36.76
60212;BME280;46079;48.686;15.598;2023-02-13T01:15:46;101977.69;;;20.14;36.58
60212;BME280;46079;48.686;15.598;2023-02-13T01:18:17;101982.94;;;20.14;36.75
60212;BME280;46079;48.686;15.598;2023-02-13T01:20:43;101974.22;;;20.13;36.63
60212;BME280;46079;48.686;15.598;2023-02-13T01:23:10;101974.22;;;20.13;36.65
60212;BME280;46079;48.686;15.598;2023-02-13T01:25:40;101976.72;;;20.15;36.59
60212;BME280;46079;48.686;15.598;2023-02-13T01:28:06;101973.34;;;20.13;36.58
60212;BME280;46079;48.686;15.598;2023-02-13T01:30:31;101973.25;;;20.14;36.63
60212;BME280;46079;48.686;15.598;2023-02-13T01:32:57;101982.94;;;20.14;36.67
60212;BME280;46079;48.686;15.598;2023-02-13T01:35:22;101974.22;;;20.13;36.83
60212;BME280;46079;48.686;15.598;2023-02-13T01:37:47;101972.44;;;20.14;36.82
60212;BME280;46079;48.686;15.598;2023-02-13T01:40:13;101973.34;;;20.13;36.81
60212;BME280;46079;48.686;15.598;2023-02-13T01:42:39;101968.94;;;20.13;36.74
60212;BME280;46079;48.686;15.598;2023-02-13T01:45:12;101968.09;;;20.13;36.75
60212;BME280;46079;48.686;15.598;2023-02-13T01:47:45;101970.72;;;20.13;36.70
60212;BME280;46079;48.686;15.598;2023-02-13T01:50:36;101965.44;;;20.13;36.89
60212;BME280;46079;48.686;15.598;2023-02-13T01:55:35;101961.06;;;20.13;36.76
60212;BME280;46079;48.686;15.598;2023-02-13T01:58:06;101954.09;;;20.12;36.91
60212;BME280;46079;48.686;15.598;2023-02-13T02:00:33;101954.22;;;20.11;36.72
60212;BME280;46079;48.686;15.598;2023-02-13T02:03:04;101955.88;;;20.12;36.86
60212;BME280;46079;48.686;15.598;2023-02-13T02:05:33;101961.16;;;20.12;36.98
60212;BME280;46079;48.686;15.598;2023-02-13T02:08:01;101955.06;;;20.11;36.99
60212;BME280;46079;48.686;15.598;2023-02-13T02:10:28;101952.50;;;20.10;36.97
60212;BME280;46079;48.686;15.598;2023-02-13T02:15:34;101948.13;;;20.10;36.82
60212;BME280;46079;48.686;15.598;2023-02-13T02:18:00;101953.38;;;20.10;36.88
60212;BME280;46079;48.686;15.598;2023-02-13T02:20:47;101948.94;;;20.11;37.10
60212;BME280;46079;48.686;15.598;2023-02-13T02:23:40;101934.09;;;20.10;36.98
60212;BME280;46079;48.686;15.598;2023-02-13T02:32:48;101941.16;;;20.09;37.07
60212;BME280;46079;48.686;15.598;2023-02-13T02:43:35;101931.66;;;20.07;37.09
60212;BME280;46079;48.686;15.598;2023-02-13T02:46:28;101927.16;;;20.09;37.00
60212;BME280;46079;48.686;15.598;2023-02-13T02:49:03;101928.13;;;20.08;37.10
60212;BME280;46079;48.686;15.598;2023-02-13T02:57:27;101938.63;;;20.08;37.30
60212;BME280;46079;48.686;15.598;2023-02-13T03:00:15;101936.91;;;20.07;37.08
60212;BME280;46079;48.686;15.598;2023-02-13T03:03:01;101941.25;;;20.08;37.07
60212;BME280;46079;48.686;15.598;2023-02-13T03:05:47;101940.38;;;20.07;37.25
60212;BME280;46079;48.686;15.598;2023-02-13T03:08:31;101927.25;;;20.07;37.20
60212;BME280;46079;48.686;15.598;2023-02-13T03:11:15;101925.50;;;20.08;37.19
60212;BME280;46079;48.686;15.598;2023-02-13T03:14:02;101924.63;;;20.07;37.19
60212;BME280;46079;48.686;15.598;2023-02-13T03:16:30;101926.41;;;20.07;37.19
60212;BME280;46079;48.686;15.598;2023-02-13T03:22:44;101929.03;;;20.07;37.45
60212;BME280;46079;48.686;15.598;2023-02-13T03:25:29;101926.41;;;20.07;37.26
60212;BME280;46079;48.686;15.598;2023-02-13T03:31:47;101915.06;;;20.06;37.82
60212;BME280;46079;48.686;15.598;2023-02-13T03:34:23;101915.88;;;20.07;37.33
60212;BME280;46079;48.686;15.598;2023-02-13T03:36:59;101914.22;;;20.06;37.21
60212;BME280;46079;48.686;15.598;2023-02-13T03:39:51;101916.00;;;20.05;37.29
60212;BME280;46079;48.686;15.598;2023-02-13T03:42:30;101923.88;;;20.05;37.52
60212;BME280;46079;48.686;15.598;2023-02-13T03:47:48;101918.53;;;20.07;37.24
60212;BME280;46079;48.686;15.598;2023-02-13T03:50:16;101913.38;;;20.05;37.59
60212;BME280;46079;48.686;15.598;2023-02-13T03:52:55;101920.38;;;20.05;37.38
60212;BME280;46079;48.686;15.598;2023-02-13T03:55:29;101921.25;;;20.05;37.54
60212;BME280;46079;48.686;15.598;2023-02-13T03:58:23;101917.75;;;20.05;37.60
60212;BME280;46079;48.686;15.598;2023-02-13T04:01:11;101911.66;;;20.04;37.42
60212;BME280;46079;48.686;15.598;2023-02-13T04:06:20;101920.38;;;20.05;37.53
60212;BME280;46079;48.686;15.598;2023-02-13T04:08:48;101916.84;;;20.06;37.39
60212;BME280;46079;48.686;15.598;2023-02-13T04:11:19;101912.50;;;20.05;37.45
60212;BME280;46079;48.686;15.598;2023-02-13T04:13:54;101922.16;;;20.04;37.61
60212;BME280;46079;48.686;15.598;2023-02-13T04:16:27;101910.81;;;20.04;37.46
60212;BME280;46079;48.686;15.598;2023-02-13T04:18:54;101919.53;;;20.04;37.53
60212;BME280;46079;48.686;15.598;2023-02-13T04:21:20;101916.91;;;20.04;37.56
60212;BME280;46079;48.686;15.598;2023-02-13T04:23:46;101916.06;;;20.04;37.49
60212;BME280;46079;48.686;15.598;2023-02-13T04:26:17;101915.13;;;20.05;37.54
60212;BME280;46079;48.686;15.598;2023-02-13T04:28:43;101913.44;;;20.04;37.51
60212;BME280;46079;48.686;15.598;2023-02-13T04:31:09;101908.19;;;20.04;37.66
60212;BME280;46079;48.686;15.598;2023-02-13T04:33:34;101915.22;;;20.03;37.54
60212;BME280;46079;48.686;15.598;2023-02-13T04:36:00;101909.97;;;20.03;37.64
60212;BME280;46079;48.686;15.598;2023-02-13T04:38:25;101913.56;;;20.02;37.60
60212;BME280;46079;48.686;15.598;2023-02-13T04:40:51;101914.38;;;20.03;37.55
60212;BME280;46079;48.686;15.598;2023-02-13T04:43:16;101911.84;;;20.01;37.43
60212;BME280;46079;48.686;15.598;2023-02-13T04:45:42;101904.78;;;20.02;37.79
60212;BME280;46079;48.686;15.598;2023-02-13T04:48:07;101917.94;;;20.02;37.74
60212;BME280;46079;48.686;15.598;2023-02-13T04:50:33;101922.34;;;20.01;37.52
60212;BME280;46079;48.686;15.598;2023-02-13T04:52:58;101915.41;;;20.00;37.54
60212;BME280;46079;48.686;15.598;2023-02-13T04:55:25;101916.25;;;20.01;37.54
60212;BME280;46079;48.686;15.598;2023-02-13T04:57:52;101919.66;;;20.03;37.47
60212;BME280;46079;48.686;15.598;2023-02-13T05:00:19;101914.47;;;20.01;37.75
60212;BME280;46079;48.686;15.598;2023-02-13T05:02:45;101921.50;;;20.01;37.68
60212;BME280;46079;48.686;15.598;2023-02-13T05:05:10;101923.19;;;20.02;37.77
60212;BME280;46079;48.686;15.598;2023-02-13T05:07:36;101919.72;;;20.01;37.74
60212;BME280;46079;48.686;15.598;2023-02-13T05:10:01;101911.84;;;20.01;37.70
60212;BME280;46079;48.686;15.598;2023-02-13T05:12:27;101929.38;;;20.01;37.49
60212;BME280;46079;48.686;15.598;2023-02-13T05:14:52;101914.47;;;20.01;37.68
60212;BME280;46079;48.686;15.598;2023-02-13T05:17:18;101916.25;;;20.01;37.74
60212;BME280;46079;48.686;15.598;2023-02-13T05:19:43;101909.22;;;20.01;37.67
60212;BME280;46079;48.686;15.598;2023-02-13T05:22:09;101915.31;;;20.02;37.89
60212;BME280;46079;48.686;15.598;2023-02-13T05:24:54;101912.69;;;20.02;37.58
60212;BME280;46079;48.686;15.598;2023-02-13T05:27:19;101932.78;;;20.03;37.78
60212;BME280;46079;48.686;15.598;2023-02-13T05:29:44;101924.13;;;20.01;37.89
60212;BME280;46079;48.686;15.598;2023-02-13T05:32:10;101927.59;;;20.01;37.62
60212;BME280;46079;48.686;15.598;2023-02-13T05:34:35;101930.22;;;20.01;37.68
60212;BME280;46079;48.686;15.598;2023-02-13T05:37:01;101929.38;;;20.01;37.93
60212;BME280;46079;48.686;15.598;2023-02-13T05:39:26;101929.38;;;20.01;37.74
60212;BME280;46079;48.686;15.598;2023-02-13T05:41:52;101926.75;;;20.01;37.86
60212;BME280;46079;48.686;15.598;2023-02-13T05:44:17;101924.13;;;20.01;37.89
60212;BME280;46079;48.686;15.598;2023-02-13T05:46:43;101932.00;;;20.01;37.72
60212;BME280;46079;48.686;15.598;2023-02-13T05:49:10;101926.75;;;20.01;37.70
60212;BME280;46079;48.686;15.598;2023-02-13T05:51:36;101931.06;;;20.02;37.64
60212;BME280;46079;48.686;15.598;2023-02-13T05:54:02;101937.25;;;20.01;37.72
60212;BME280;46079;48.686;15.598;2023-02-13T05:56:28;101937.25;;;20.01;37.82
60212;BME280;46079;48.686;15.598;2023-02-13T05:58:54;101938.94;;;20.02;37.92
60212;BME280;46079;48.686;15.598;2023-02-13T06:01:20;101943.34;;;20.01;37.85
60212;BME280;46079;48.686;15.598;2023-02-13T06:03:46;101939.88;;;20.01;37.95
60212;BME280;46079;48.686;15.598;2023-02-13T06:06:12;101941.56;;;20.02;37.91
60212;BME280;46079;48.686;15.598;2023-02-13T06:08:37;101941.56;;;20.02;37.84
60212;BME280;46079;48.686;15.598;2023-02-13T06:11:03;101944.19;;;20.02;37.51
60212;BME280;46079;48.686;15.598;2023-02-13T06:13:29;101946.81;;;20.02;37.67
60212;BME280;46079;48.686;15.598;2023-02-13T06:15:55;101949.44;;;20.02;37.82
60212;BME280;46079;48.686;15.598;2023-02-13T06:18:20;101946.81;;;20.02;37.61
60212;BME280;46079;48.686;15.598;2023-02-13T06:20:45;101950.31;;;20.02;37.79
60212;BME280;46079;48.686;15.598;2023-02-13T06:23:11;101949.38;;;20.03;37.95
60212;BME280;46079;48.686;15.598;2023-02-13T06:25:37;101944.13;;;20.03;37.96
60212;BME280;46079;48.686;15.598;2023-02-13T06:28:03;101952.84;;;20.04;38.05
60212;BME280;46079;48.686;15.598;2023-02-13T06:30:30;101949.28;;;20.05;37.88
60212;BME280;46079;48.686;15.598;2023-02-13T06:32:55;101954.53;;;20.05;37.97
60212;BME280;46079;48.686;15.598;2023-02-13T06:35:21;101961.50;;;20.06;37.96
60212;BME280;46079;48.686;15.598;2023-02-13T06:37:46;101957.09;;;20.06;37.94
60212;BME280;46079;48.686;15.598;2023-02-13T06:40:13;101961.31;;;20.09;37.61
60212;BME280;46079;48.686;15.598;2023-02-13T06:42:41;101963.88;;;20.10;37.73
60212;BME280;46079;48.686;15.598;2023-02-13T06:45:06;101965.63;;;20.10;37.52
60212;BME280;46079;48.686;15.598;2023-02-13T06:47:32;101963.00;;;20.10;37.72
60212;BME280;46079;48.686;15.598;2023-02-13T06:49:57;101962.09;;;20.11;37.59
60212;BME280;46079;48.686;15.598;2023-02-13T06:52:23;101965.56;;;20.11;37.71
60212;BME280;46079;48.686;15.598;2023-02-13T06:54:48;101963.00;;;20.10;37.73
60212;BME280;46079;48.686;15.598;2023-02-13T06:57:15;101960.38;;;20.10;37.70
60212;BME280;46079;48.686;15.598;2023-02-13T06:59:41;101961.25;;;20.10;37.59
60212;BME280;46079;48.686;15.598;2023-02-13T07:02:08;101962.09;;;20.11;37.36
60212;BME280;46079;48.686;15.598;2023-02-13T07:04:34;101968.78;;;20.01;35.85
60212;BME280;46079;48.686;15.598;2023-02-13T07:07:00;101975.16;;;19.81;35.34
60212;BME280;46079;48.686;15.598;2023-02-13T07:09:25;101978.06;;;19.59;35.23
60212;BME280;46079;48.686;15.598;2023-02-13T07:11:51;101983.44;;;19.40;34.93
60212;BME280;46079;48.686;15.598;2023-02-13T07:14:16;101974.91;;;19.19;34.69
60212;BME280;46079;48.686;15.598;2023-02-13T07:16:42;101978.41;;;19.02;34.94
60212;BME280;46079;48.686;15.598;2023-02-13T07:19:07;101981.91;;;18.85;34.98
60212;BME280;46079;48.686;15.598;2023-02-13T07:21:32;101981.72;;;18.71;35.24
60212;BME280;46079;48.686;15.598;2023-02-13T07:23:58;101977.06;;;18.58;35.14
60212;BME280;46079;48.686;15.598;2023-02-13T07:26:23;101979.44;;;18.45;35.72
60212;BME280;46079;48.686;15.598;2023-02-13T07:28:51;101992.22;;;18.34;35.42
60212;BME280;46079;48.686;15.598;2023-02-13T07:31:16;101987.47;;;18.23;35.65
60212;BME280;46079;48.686;15.598;2023-02-13T07:33:42;101988.41;;;18.22;35.84
60212;BME280;46079;48.686;15.598;2023-02-13T07:36:07;101994.13;;;18.31;36.39
60212;BME280;46079;48.686;15.598;2023-02-13T07:38:33;101993.56;;;18.43;36.48
60212;BME280;46079;48.686;15.598;2023-02-13T07:40:59;101991.25;;;18.54;36.63
60212;BME280;46079;48.686;15.598;2023-02-13T07:43:25;101988.88;;;18.67;36.75
60212;BME280;46079;48.686;15.598;2023-02-13T07:45:51;101989.13;;;18.80;36.84
60212;BME280;46079;48.686;15.598;2023-02-13T07:48:22;101990.38;;;18.90;36.79
60212;BME280;46079;48.686;15.598;2023-02-13T07:50:49;101981.25;;;18.97;36.75
60212;BME280;46079;48.686;15.598;2023-02-13T07:53:14;101980.03;;;19.04;36.88
60212;BME280;46079;48.686;15.598;2023-02-13T07:55:40;101978.94;;;19.08;36.72
60212;BME280;46079;48.686;15.598;2023-02-13T07:58:05;101984.78;;;19.14;36.75
60212;BME280;46079;48.686;15.598;2023-02-13T08:00:31;101989.03;;;19.16;36.59
60212;BME280;46079;48.686;15.598;2023-02-13T08:02:59;101986.19;;;19.21;36.73
60212;BME280;46079;48.686;15.598;2023-02-13T08:05:25;101989.47;;;19.24;36.85
60212;BME280;46079;48.686;15.598;2023-02-13T08:07:51;101990.19;;;19.28;36.83
60212;BME280;46079;48.686;15.598;2023-02-13T08:10:17;101996.19;;;19.30;36.59
60212;BME280;46079;48.686;15.598;2023-02-13T08:13:01;101990.78;;;19.33;36.33
60212;BME280;46079;48.686;15.598;2023-02-13T08:15:26;101993.22;;;19.36;36.58
60212;BME280;46079;48.686;15.598;2023-02-13T08:17:52;101983.50;;;19.38;36.72
60212;BME280;46079;48.686;15.598;2023-02-13T08:20:18;101987.75;;;19.41;36.43
60212;BME280;46079;48.686;15.598;2023-02-13T08:22:43;101992.00;;;19.43;36.60
60212;BME280;46079;48.686;15.598;2023-02-13T08:25:08;101988.41;;;19.44;36.66
60212;BME280;46079;48.686;15.598;2023-02-13T08:27:34;101993.59;;;19.46;36.32
60212;BME280;46079;48.686;15.598;2023-02-13T08:29:59;101991.75;;;19.48;36.32
60212;BME280;46079;48.686;15.598;2023-02-13T08:32:26;101989.03;;;19.49;36.46
60212;BME280;46079;48.686;15.598;2023-02-13T08:34:51;101990.75;;;19.50;36.43
60212;BME280;46079;48.686;15.598;2023-02-13T08:37:17;101995.91;;;19.52;36.39
60212;BME280;46079;48.686;15.598;2023-02-13T08:39:43;101993.19;;;19.53;36.34
60212;BME280;46079;48.686;15.598;2023-02-13T08:42:08;101998.28;;;19.57;36.29
60212;BME280;46079;48.686;15.598;2023-02-13T08:44:34;101992.19;;;19.56;36.64
60212;BME280;46079;48.686;15.598;2023-02-13T08:46:59;101994.72;;;19.58;36.48
60212;BME280;46079;48.686;15.598;2023-02-13T08:49:28;101997.19;;;19.61;36.46
60212;BME280;46079;48.686;15.598;2023-02-13T08:51:54;101991.09;;;19.60;36.42
60212;BME280;46079;48.686;15.598;2023-02-13T08:54:20;101994.47;;;19.62;36.47
60212;BME280;46079;48.686;15.598;2023-02-13T08:56:45;101989.16;;;19.64;36.48
60212;BME280;46079;48.686;15.598;2023-02-13T08:59:10;101994.31;;;19.65;36.62
60212;BME280;46079;48.686;15.598;2023-02-13T09:01:36;101986.44;;;19.65;36.45
60212;BME280;46079;48.686;15.598;2023-02-13T09:04:02;101989.03;;;19.67;36.36
60212;BME280;46079;48.686;15.598;2023-02-13T09:06:27;101988.09;;;19.68;36.31
60212;BME280;46079;48.686;15.598;2023-02-13T09:08:53;102001.16;;;19.69;36.17
60212;BME280;46079;48.686;15.598;2023-02-13T09:11:19;101994.09;;;19.70;36.50
60212;BME280;46079;48.686;15.598;2023-02-13T09:13:48;101987.91;;;19.71;36.21
60212;BME280;46079;48.686;15.598;2023-02-13T09:16:13;101990.53;;;19.71;36.37
60212;BME280;46079;48.686;15.598;2023-02-13T09:18:39;101993.09;;;19.72;36.27
60212;BME280;46079;48.686;15.598;2023-02-13T09:21:10;101990.38;;;19.74;36.35
60212;BME280;46079;48.686;15.598;2023-02-13T09:23:37;101991.22;;;19.74;36.32
60212;BME280;46079;48.686;15.598;2023-02-13T09:26:09;101994.59;;;19.76;36.40
60212;BME280;46079;48.686;15.598;2023-02-13T09:28:35;102000.72;;;19.77;36.40
60212;BME280;46079;48.686;15.598;2023-02-13T09:31:09;102004.22;;;19.77;36.40
60212;BME280;46079;48.686;15.598;2023-02-13T09:33:36;102005.03;;;19.78;36.57
60212;BME280;46079;48.686;15.598;2023-02-13T09:36:06;102001.47;;;19.79;36.31
60212;BME280;46079;48.686;15.598;2023-02-13T09:38:31;102005.81;;;19.80;36.41
60212;BME280;46079;48.686;15.598;2023-02-13T09:41:01;102007.56;;;19.80;36.40
60212;BME280;46079;48.686;15.598;2023-02-13T09:46:04;102012.75;;;19.81;36.37
60212;BME280;46079;48.686;15.598;2023-02-13T09:48:35;102009.19;;;19.82;36.37
60212;BME280;46079;48.686;15.598;2023-02-13T09:51:03;102021.41;;;19.83;36.43
60212;BME280;46079;48.686;15.598;2023-02-13T09:53:28;102014.38;;;19.84;36.58
60212;BME280;46079;48.686;15.598;2023-02-13T09:56:11;102017.84;;;19.84;36.40
60212;BME280;46079;48.686;15.598;2023-02-13T09:58:43;102016.91;;;19.85;36.42
60212;BME280;46079;48.686;15.598;2023-02-13T10:01:18;102011.56;;;19.87;36.23
60212;BME280;46079;48.686;15.598;2023-02-13T10:03:54;102015.03;;;19.87;36.32
60212;BME280;46079;48.686;15.598;2023-02-13T10:06:29;102014.97;;;19.89;36.40
60212;BME280;46079;48.686;15.598;2023-02-13T10:11:31;102025.38;;;19.90;36.28
60212;BME280;46079;48.686;15.598;2023-02-13T10:14:18;102020.97;;;19.91;36.33
60212;BME280;46079;48.686;15.598;2023-02-13T10:19:43;102023.53;;;19.92;36.44
60212;BME280;46079;48.686;15.598;2023-02-13T10:22:15;102020.81;;;19.94;36.38
60212;BME280;46079;48.686;15.598;2023-02-13T10:24:55;102020.81;;;19.94;36.22
60212;BME280;46079;48.686;15.598;2023-02-13T10:27:46;102015.56;;;19.94;36.35
60212;BME280;46079;48.686;15.598;2023-02-13T10:33:00;102002.34;;;19.95;36.17
60212;BME280;46079;48.686;15.598;2023-02-13T10:38:37;102001.44;;;19.96;36.21
60212;BME280;46079;48.686;15.598;2023-02-13T10:41:24;101999.72;;;19.95;36.05
60212;BME280;46079;48.686;15.598;2023-02-13T10:44:33;101992.50;;;19.99;36.16
60212;BME280;46079;48.686;15.598;2023-02-13T10:47:21;101989.88;;;19.99;36.09
60212;BME280;46079;48.686;15.598;2023-02-13T10:55:21;101974.88;;;20.01;36.23
60212;BME280;46079;48.686;15.598;2023-02-13T11:02:58;101977.44;;;20.03;36.20
60212;BME280;46079;48.686;15.598;2023-02-13T11:05:34;101978.28;;;20.03;36.06
60212;BME280;46079;48.686;15.598;2023-02-13T11:08:01;101970.41;;;20.03;36.11
60212;BME280;46079;48.686;15.598;2023-02-13T11:10:30;101968.63;;;20.04;36.15
60212;BME280;46079;48.686;15.598;2023-02-13T11:12:55;101962.41;;;20.05;35.90
60212;BME280;46079;48.686;15.598;2023-02-13T11:17:52;101970.28;;;20.05;35.96
60212;BME280;46079;48.686;15.598;2023-02-13T11:20:38;101971.91;;;20.07;36.24
60212;BME280;46079;48.686;15.598;2023-02-13T11:26:05;101964.91;;;20.08;36.03
60212;BME280;46079;48.686;15.598;2023-02-13T11:28:43;101960.47;;;20.08;36.02
60212;BME280;46079;48.686;15.598;2023-02-13T11:31:29;101956.91;;;20.09;36.06
60212;BME280;46079;48.686;15.598;2023-02-13T11:33:55;101965.63;;;20.10;36.07
60212;BME280;46079;48.686;15.598;2023-02-13T11:36:32;101958.63;;;20.10;36.35
60212;BME280;46079;48.686;15.598;2023-02-13T11:39:02;101958.63;;;20.10;36.14
60212;BME280;46079;48.686;15.598;2023-02-13T11:41:30;101963.88;;;20.10;36.27
60212;BME280;46079;48.686;15.598;2023-02-13T11:44:01;101966.41;;;20.12;36.16
60212;BME280;46079;48.686;15.598;2023-02-13T11:46:48;101961.16;;;20.12;36.22
60212;BME280;46079;48.686;15.598;2023-02-13T11:49:19;101957.56;;;20.13;36.38
60212;BME280;46079;48.686;15.598;2023-02-13T11:51:48;101956.66;;;20.14;36.30
60212;BME280;46079;48.686;15.598;2023-02-13T11:54:28;101955.72;;;20.15;36.29
60212;BME280;46079;48.686;15.598;2023-02-13T11:57:00;101959.28;;;20.14;36.26
60212;BME280;46079;48.686;15.598;2023-02-13T11:59:31;101958.34;;;20.15;36.35
60212;BME280;46079;48.686;15.598;2023-02-13T12:04:42;101960.06;;;20.16;36.25
60212;BME280;46079;48.686;15.598;2023-02-13T12:09:44;101955.63;;;20.16;36.35
60212;BME280;46079;48.686;15.598;2023-02-13T12:12:33;101956.41;;;20.18;36.41
60212;BME280;46079;48.686;15.598;2023-02-13T12:15:02;101954.69;;;20.17;36.17
60212;BME280;46079;48.686;15.598;2023-02-13T12:17:34;101941.56;;;20.17;36.32
60212;BME280;46079;48.686;15.598;2023-02-13T12:20:00;101946.75;;;20.19;36.14
60212;BME280;46079;48.686;15.598;2023-02-13T12:22:53;101933.59;;;20.19;36.28
60212;BME280;46079;48.686;15.598;2023-02-13T12:28:32;101927.41;;;20.20;36.30
60212;BME280;46079;48.686;15.598;2023-02-13T12:33:58;101926.44;;;20.21;36.39
60212;BME280;46079;48.686;15.598;2023-02-13T12:36:35;101917.72;;;20.20;36.24
60212;BME280;46079;48.686;15.598;2023-02-13T12:44:37;101921.13;;;20.23;36.51
60212;BME280;46079;48.686;15.598;2023-02-13T12:47:18;101921.97;;;20.23;36.38
60212;BME280;46079;48.686;15.598;2023-02-13T12:50:05;101921.06;;;20.24;36.31
60212;BME280;46079;48.686;15.598;2023-02-13T13:06:24;101896.44;;;20.25;36.45
60212;BME280;46079;48.686;15.598;2023-02-13T13:12:09;101890.25;;;20.26;36.57
60212;BME280;46079;48.686;15.598;2023-02-13T13:14:55;101879.75;;;20.26;36.48
60212;BME280;46079;48.686;15.598;2023-02-13T13:23:14;101879.66;;;20.28;36.55
60212;BME280;46079;48.686;15.598;2023-02-13T13:26:03;101882.28;;;20.28;36.31
60212;BME280;46079;48.686;15.598;2023-02-13T13:28:37;101883.97;;;20.29;36.43
60212;BME280;46079;48.686;15.598;2023-02-13T13:31:04;101872.63;;;20.28;36.56
60212;BME280;46079;48.686;15.598;2023-02-13T13:33:32;101873.47;;;20.29;36.62
60212;BME280;46079;48.686;15.598;2023-02-13T13:43:50;101884.81;;;20.29;36.46
60212;BME280;46079;48.686;15.598;2023-02-13T13:52:29;101887.44;;;20.29;36.53
60212;BME280;46079;48.686;15.598;2023-02-13T13:54:56;101892.63;;;20.31;36.38
60212;BME280;46079;48.686;15.598;2023-02-13T14:02:38;101874.22;;;20.31;36.62
60212;BME280;46079;48.686;15.598;2023-02-13T14:08:02;101870.75;;;20.30;36.66
60212;BME280;46079;48.686;15.598;2023-02-13T14:13:03;101866.34;;;20.31;36.60
60212;BME280;46079;48.686;15.598;2023-02-13T14:18:18;101867.28;;;20.30;36.54
60212;BME280;46079;48.686;15.598;2023-02-13T14:28:35;101872.44;;;20.31;36.66
60212;BME280;46079;48.686;15.598;2023-02-13T14:31:06;101864.66;;;20.30;36.60
60212;BME280;46079;48.686;15.598;2023-02-13T14:33:33;101873.38;;;20.30;36.59
60212;BME280;46079;48.686;15.598;2023-02-13T14:36:02;101864.66;;;20.30;36.70
60212;BME280;46079;48.686;15.598;2023-02-13T14:38:29;101873.38;;;20.30;36.60
60212;BME280;46079;48.686;15.598;2023-02-13T14:40:54;101872.53;;;20.30;36.49
60212;BME280;46079;48.686;15.598;2023-02-13T14:43:27;101870.75;;;20.30;36.45
60212;BME280;46079;48.686;15.598;2023-02-13T14:48:40;101871.66;;;20.29;36.66
60212;BME280;46079;48.686;15.598;2023-02-13T14:51:16;101870.75;;;20.30;36.72
60212;BME280;46079;48.686;15.598;2023-02-13T14:53:50;101860.25;;;20.30;36.60
60212;BME280;46079;48.686;15.598;2023-02-13T14:56:18;101863.78;;;20.29;36.42
60212;BME280;46079;48.686;15.598;2023-02-13T14:59:30;101862.03;;;20.30;36.52
60212;BME280;46079;48.686;15.598;2023-02-13T15:01:53;101859.41;;;20.30;36.55
60212;BME280;46079;48.686;15.598;2023-02-13T15:06:52;101862.94;;;20.29;36.61
60212;BME280;46079;48.686;15.598;2023-02-13T15:09:31;101865.50;;;20.30;36.41
60212;BME280;46079;48.686;15.598;2023-02-13T15:11:59;101859.41;;;20.30;36.40
60212;BME280;46079;48.686;15.598;2023-02-13T15:14:33;101858.53;;;20.29;36.69
60212;BME280;46079;48.686;15.598;2023-02-13T15:19:31;101862.09;;;20.28;36.66
60212;BME280;46079;48.686;15.598;2023-02-13T15:22:00;101867.38;;;20.28;36.66
60212;BME280;46079;48.686;15.598;2023-02-13T15:24:29;101861.16;;;20.29;36.45